sensor_id;sensor_type;location;lat;lon;timestamp;P1;durP1;ratioP1;P2;durP2;ratioP2
27746;SDS011;15138;51.012;4.692;2022-09-29T00:00:51;11.85;;;6.55;;
27746;SDS011;15138;51.012;4.692;2022-09-29T00:03:20;9.60;;;5.53;;
27746;SDS011;15138;51.012;4.692;2022-09-29T00:05:49;9.68;;;5.63;;
27746;SDS011;15138;51.012;4.692;2022-09-29T00:08:20;9.05;;;4.75;;
27746;SDS011;15138;51.012;4.692;2022-09-29T00:10:49;10.63;;;5.20;;
27746;SDS011;15138;51.012;4.692;2022-09-29T00:13:18;7.47;;;4.47;;
27746;SDS011;15138;51.012;4.692;2022-09-29T00:15:53;10.18;;;4.75;;
27746;SDS011;15138;51.012;4.692;2022-09-29T00:18:22;9.15;;;4.10;;
27746;SDS011;15138;51.012;4.692;2022-09-29T00:20:57;7.78;;;4.57;;
27746;SDS011;15138;51.012;4.692;2022-09-29T00:23:28;7.65;;;3.95;;
27746;SDS011;15138;51.012;4.692;2022-09-29T00:26:00;7.25;;;4.65;;
27746;SDS011;15138;51.012;4.692;2022-09-29T00:28:29;7.80;;;4.40;;
27746;SDS011;15138;51.012;4.692;2022-09-29T00:30:58;6.45;;;4.45;;
27746;SDS011;15138;51.012;4.692;2022-09-29T00:33:28;14.50;;;4.25;;
27746;SDS011;15138;51.012;4.692;2022-09-29T00:35:57;6.03;;;3.25;;
27746;SDS011;15138;51.012;4.692;2022-09-29T00:38:28;6.35;;;4.03;;
27746;SDS011;15138;51.012;4.692;2022-09-29T00:40:56;4.57;;;3.45;;
27746;SDS011;15138;51.012;4.692;2022-09-29T00:46:15;5.35;;;3.30;;
27746;SDS011;15138;51.012;4.692;2022-09-29T00:48:46;5.80;;;3.42;;
27746;SDS011;15138;51.012;4.692;2022-09-29T00:51:15;9.75;;;4.35;;
27746;SDS011;15138;51.012;4.692;2022-09-29T00:53:46;5.28;;;3.33;;
27746;SDS011;15138;51.012;4.692;2022-09-29T00:56:15;4.30;;;2.92;;
27746;SDS011;15138;51.012;4.692;2022-09-29T00:58:46;3.45;;;2.75;;
27746;SDS011;15138;51.012;4.692;2022-09-29T01:01:20;4.70;;;2.80;;
27746;SDS011;15138;51.012;4.692;2022-09-29T01:03:49;4.03;;;3.35;;
27746;SDS011;15138;51.012;4.692;2022-09-29T01:06:22;5.18;;;3.50;;
27746;SDS011;15138;51.012;4.692;2022-09-29T01:08:56;5.93;;;3.40;;
27746;SDS011;15138;51.012;4.692;2022-09-29T01:11:29;4.38;;;3.35;;
27746;SDS011;15138;51.012;4.692;2022-09-29T01:13:57;8.80;;;3.45;;
27746;SDS011;15138;51.012;4.692;2022-09-29T01:16:29;4.13;;;3.17;;
27746;SDS011;15138;51.012;4.692;2022-09-29T01:18:58;7.85;;;2.75;;
27746;SDS011;15138;51.012;4.692;2022-09-29T01:21:29;4.13;;;2.85;;
27746;SDS011;15138;51.012;4.692;2022-09-29T01:30:18;3.33;;;2.53;;
27746;SDS011;15138;51.012;4.692;2022-09-29T01:32:54;4.93;;;2.50;;
27746;SDS011;15138;51.012;4.692;2022-09-29T01:35:34;43.35;;;4.07;;
27746;SDS011;15138;51.012;4.692;2022-09-29T01:38:12;42.35;;;4.00;;
27746;SDS011;15138;51.012;4.692;2022-09-29T01:40:53;5.00;;;2.47;;
27746;SDS011;15138;51.012;4.692;2022-09-29T01:43:30;3.72;;;2.67;;
27746;SDS011;15138;51.012;4.692;2022-09-29T01:46:01;3.13;;;2.58;;
27746;SDS011;15138;51.012;4.692;2022-09-29T01:48:35;5.07;;;2.92;;
27746;SDS011;15138;51.012;4.692;2022-09-29T01:51:08;4.25;;;2.90;;
27746;SDS011;15138;51.012;4.692;2022-09-29T01:53:40;3.50;;;2.40;;
27746;SDS011;15138;51.012;4.692;2022-09-29T01:56:13;3.70;;;2.30;;
27746;SDS011;15138;51.012;4.692;2022-09-29T01:58:47;3.75;;;2.80;;
27746;SDS011;15138;51.012;4.692;2022-09-29T02:01:19;3.72;;;2.80;;
27746;SDS011;15138;51.012;4.692;2022-09-29T02:03:52;6.40;;;2.85;;
27746;SDS011;15138;51.012;4.692;2022-09-29T02:06:24;3.67;;;2.70;;
27746;SDS011;15138;51.012;4.692;2022-09-29T02:08:57;5.40;;;3.08;;
27746;SDS011;15138;51.012;4.692;2022-09-29T02:11:26;6.65;;;2.95;;
27746;SDS011;15138;51.012;4.692;2022-09-29T02:14:00;4.43;;;2.88;;
27746;SDS011;15138;51.012;4.692;2022-09-29T02:16:31;4.25;;;2.95;;
27746;SDS011;15138;51.012;4.692;2022-09-29T02:19:09;3.65;;;2.67;;
27746;SDS011;15138;51.012;4.692;2022-09-29T02:21:42;3.80;;;2.80;;
27746;SDS011;15138;51.012;4.692;2022-09-29T02:24:11;4.78;;;2.58;;
27746;SDS011;15138;51.012;4.692;2022-09-29T02:26:39;4.25;;;2.47;;
27746;SDS011;15138;51.012;4.692;2022-09-29T02:29:10;4.68;;;2.88;;
27746;SDS011;15138;51.012;4.692;2022-09-29T02:31:38;5.05;;;3.17;;
27746;SDS011;15138;51.012;4.692;2022-09-29T02:34:09;6.38;;;3.33;;
27746;SDS011;15138;51.012;4.692;2022-09-29T02:36:42;9.90;;;4.32;;
27746;SDS011;15138;51.012;4.692;2022-09-29T02:39:23;4.47;;;3.65;;
27746;SDS011;15138;51.012;4.692;2022-09-29T02:42:04;4.22;;;2.90;;
27746;SDS011;15138;51.012;4.692;2022-09-29T02:44:46;4.30;;;2.70;;
27746;SDS011;15138;51.012;4.692;2022-09-29T02:47:29;4.85;;;3.72;;
27746;SDS011;15138;51.012;4.692;2022-09-29T02:50:12;4.53;;;3.05;;
27746;SDS011;15138;51.012;4.692;2022-09-29T02:52:53;5.55;;;3.53;;
27746;SDS011;15138;51.012;4.692;2022-09-29T02:55:30;6.53;;;4.18;;
27746;SDS011;15138;51.012;4.692;2022-09-29T02:58:06;7.82;;;4.25;;
27746;SDS011;15138;51.012;4.692;2022-09-29T03:00:40;9.55;;;4.63;;
27746;SDS011;15138;51.012;4.692;2022-09-29T03:03:09;6.40;;;3.58;;
27746;SDS011;15138;51.012;4.692;2022-09-29T03:05:39;6.75;;;4.80;;
27746;SDS011;15138;51.012;4.692;2022-09-29T03:08:07;6.13;;;3.35;;
27746;SDS011;15138;51.012;4.692;2022-09-29T03:10:35;5.00;;;3.38;;
27746;SDS011;15138;51.012;4.692;2022-09-29T03:13:03;4.82;;;3.03;;
27746;SDS011;15138;51.012;4.692;2022-09-29T03:15:31;8.45;;;4.70;;
27746;SDS011;15138;51.012;4.692;2022-09-29T03:17:59;11.20;;;4.90;;
27746;SDS011;15138;51.012;4.692;2022-09-29T03:20:34;8.02;;;4.90;;
27746;SDS011;15138;51.012;4.692;2022-09-29T03:23:03;14.05;;;5.13;;
27746;SDS011;15138;51.012;4.692;2022-09-29T03:25:31;10.73;;;4.72;;
27746;SDS011;15138;51.012;4.692;2022-09-29T03:28:00;5.35;;;3.33;;
27746;SDS011;15138;51.012;4.692;2022-09-29T03:30:28;7.15;;;3.40;;
27746;SDS011;15138;51.012;4.692;2022-09-29T03:32:56;7.88;;;4.15;;
27746;SDS011;15138;51.012;4.692;2022-09-29T03:35:24;5.05;;;3.35;;
27746;SDS011;15138;51.012;4.692;2022-09-29T03:37:55;5.72;;;3.33;;
27746;SDS011;15138;51.012;4.692;2022-09-29T03:40:26;8.13;;;4.15;;
27746;SDS011;15138;51.012;4.692;2022-09-29T03:42:54;5.13;;;3.92;;
27746;SDS011;15138;51.012;4.692;2022-09-29T03:45:22;7.60;;;4.38;;
27746;SDS011;15138;51.012;4.692;2022-09-29T03:47:51;8.05;;;3.55;;
27746;SDS011;15138;51.012;4.692;2022-09-29T03:50:19;5.47;;;3.47;;
27746;SDS011;15138;51.012;4.692;2022-09-29T03:52:47;5.00;;;3.00;;
27746;SDS011;15138;51.012;4.692;2022-09-29T03:55:15;6.80;;;3.60;;
27746;SDS011;15138;51.012;4.692;2022-09-29T03:57:44;7.15;;;3.30;;
27746;SDS011;15138;51.012;4.692;2022-09-29T04:00:13;7.03;;;3.05;;
27746;SDS011;15138;51.012;4.692;2022-09-29T04:02:41;3.67;;;2.72;;
27746;SDS011;15138;51.012;4.692;2022-09-29T04:05:09;6.28;;;3.17;;
27746;SDS011;15138;51.012;4.692;2022-09-29T04:07:37;12.77;;;3.90;;
27746;SDS011;15138;51.012;4.692;2022-09-29T04:10:06;4.88;;;3.10;;
27746;SDS011;15138;51.012;4.692;2022-09-29T04:12:34;4.03;;;3.03;;
27746;SDS011;15138;51.012;4.692;2022-09-29T04:15:04;4.47;;;3.08;;
27746;SDS011;15138;51.012;4.692;2022-09-29T04:17:32;4.88;;;3.05;;
27746;SDS011;15138;51.012;4.692;2022-09-29T04:20:01;4.85;;;3.05;;
27746;SDS011;15138;51.012;4.692;2022-09-29T04:22:29;5.25;;;3.20;;
27746;SDS011;15138;51.012;4.692;2022-09-29T04:24:57;6.88;;;3.53;;
27746;SDS011;15138;51.012;4.692;2022-09-29T04:27:25;9.95;;;4.72;;
27746;SDS011;15138;51.012;4.692;2022-09-29T04:29:53;15.10;;;4.60;;
27746;SDS011;15138;51.012;4.692;2022-09-29T04:32:22;5.05;;;4.18;;
27746;SDS011;15138;51.012;4.692;2022-09-29T04:34:51;8.73;;;3.40;;
27746;SDS011;15138;51.012;4.692;2022-09-29T04:37:19;5.18;;;3.58;;
27746;SDS011;15138;51.012;4.692;2022-09-29T04:39:47;6.60;;;3.10;;
27746;SDS011;15138;51.012;4.692;2022-09-29T04:42:15;7.20;;;3.45;;
27746;SDS011;15138;51.012;4.692;2022-09-29T04:44:43;7.20;;;4.30;;
27746;SDS011;15138;51.012;4.692;2022-09-29T04:47:12;5.38;;;3.30;;
27746;SDS011;15138;51.012;4.692;2022-09-29T04:49:42;6.50;;;2.88;;
27746;SDS011;15138;51.012;4.692;2022-09-29T04:52:10;5.80;;;3.50;;
27746;SDS011;15138;51.012;4.692;2022-09-29T04:54:38;5.35;;;3.35;;
27746;SDS011;15138;51.012;4.692;2022-09-29T04:57:06;9.60;;;4.70;;
27746;SDS011;15138;51.012;4.692;2022-09-29T04:59:35;5.13;;;3.60;;
27746;SDS011;15138;51.012;4.692;2022-09-29T05:02:03;6.63;;;3.47;;
27746;SDS011;15138;51.012;4.692;2022-09-29T05:04:31;9.95;;;4.22;;
27746;SDS011;15138;51.012;4.692;2022-09-29T05:07:01;6.90;;;3.30;;
27746;SDS011;15138;51.012;4.692;2022-09-29T05:09:29;7.70;;;3.65;;
27746;SDS011;15138;51.012;4.692;2022-09-29T05:11:59;15.77;;;5.95;;
27746;SDS011;15138;51.012;4.692;2022-09-29T05:14:27;9.57;;;3.70;;
27746;SDS011;15138;51.012;4.692;2022-09-29T05:16:56;8.25;;;3.70;;
27746;SDS011;15138;51.012;4.692;2022-09-29T05:19:24;9.93;;;4.85;;
27746;SDS011;15138;51.012;4.692;2022-09-29T05:21:52;6.18;;;4.30;;
27746;SDS011;15138;51.012;4.692;2022-09-29T05:24:22;7.07;;;3.67;;
27746;SDS011;15138;51.012;4.692;2022-09-29T05:26:50;7.63;;;4.07;;
27746;SDS011;15138;51.012;4.692;2022-09-29T05:29:23;7.53;;;4.00;;
27746;SDS011;15138;51.012;4.692;2022-09-29T05:31:51;9.75;;;4.22;;
27746;SDS011;15138;51.012;4.692;2022-09-29T05:34:20;8.90;;;4.13;;
27746;SDS011;15138;51.012;4.692;2022-09-29T05:36:48;10.30;;;4.32;;
27746;SDS011;15138;51.012;4.692;2022-09-29T05:39:16;8.73;;;4.57;;
27746;SDS011;15138;51.012;4.692;2022-09-29T05:41:48;6.60;;;3.85;;
27746;SDS011;15138;51.012;4.692;2022-09-29T05:44:16;9.57;;;5.50;;
27746;SDS011;15138;51.012;4.692;2022-09-29T05:46:44;7.90;;;4.15;;
27746;SDS011;15138;51.012;4.692;2022-09-29T05:49:12;11.35;;;4.38;;
27746;SDS011;15138;51.012;4.692;2022-09-29T05:51:40;6.85;;;3.63;;
27746;SDS011;15138;51.012;4.692;2022-09-29T05:54:08;10.85;;;5.28;;
27746;SDS011;15138;51.012;4.692;2022-09-29T05:56:36;9.50;;;4.28;;
27746;SDS011;15138;51.012;4.692;2022-09-29T05:59:11;8.15;;;4.55;;
27746;SDS011;15138;51.012;4.692;2022-09-29T06:01:40;6.90;;;4.03;;
27746;SDS011;15138;51.012;4.692;2022-09-29T06:04:09;5.85;;;3.65;;
27746;SDS011;15138;51.012;4.692;2022-09-29T06:06:37;8.05;;;4.25;;
27746;SDS011;15138;51.012;4.692;2022-09-29T06:09:05;9.75;;;4.38;;
27746;SDS011;15138;51.012;4.692;2022-09-29T06:11:34;15.02;;;5.18;;
27746;SDS011;15138;51.012;4.692;2022-09-29T06:14:02;8.85;;;4.15;;
27746;SDS011;15138;51.012;4.692;2022-09-29T06:16:31;8.45;;;4.68;;
27746;SDS011;15138;51.012;4.692;2022-09-29T06:19:00;8.18;;;4.55;;
27746;SDS011;15138;51.012;4.692;2022-09-29T06:21:29;10.05;;;6.18;;
27746;SDS011;15138;51.012;4.692;2022-09-29T06:24:00;11.40;;;5.45;;
27746;SDS011;15138;51.012;4.692;2022-09-29T06:26:28;10.55;;;5.18;;
27746;SDS011;15138;51.012;4.692;2022-09-29T06:28:56;12.82;;;4.85;;
27746;SDS011;15138;51.012;4.692;2022-09-29T06:31:25;16.58;;;5.20;;
27746;SDS011;15138;51.012;4.692;2022-09-29T06:33:56;8.73;;;4.75;;
27746;SDS011;15138;51.012;4.692;2022-09-29T06:36:27;13.05;;;5.47;;
27746;SDS011;15138;51.012;4.692;2022-09-29T06:39:15;10.55;;;6.05;;
27746;SDS011;15138;51.012;4.692;2022-09-29T06:41:43;9.38;;;5.18;;
27746;SDS011;15138;51.012;4.692;2022-09-29T06:44:17;8.35;;;5.68;;
27746;SDS011;15138;51.012;4.692;2022-09-29T06:46:45;18.45;;;7.57;;
27746;SDS011;15138;51.012;4.692;2022-09-29T06:49:15;15.60;;;8.32;;
27746;SDS011;15138;51.012;4.692;2022-09-29T06:51:43;12.75;;;7.18;;
27746;SDS011;15138;51.012;4.692;2022-09-29T06:54:12;12.52;;;7.60;;
27746;SDS011;15138;51.012;4.692;2022-09-29T06:56:42;14.10;;;7.72;;
27746;SDS011;15138;51.012;4.692;2022-09-29T06:59:13;20.38;;;8.52;;
27746;SDS011;15138;51.012;4.692;2022-09-29T07:01:41;14.27;;;7.25;;
27746;SDS011;15138;51.012;4.692;2022-09-29T07:04:10;18.75;;;7.55;;
27746;SDS011;15138;51.012;4.692;2022-09-29T07:06:40;14.15;;;7.72;;
27746;SDS011;15138;51.012;4.692;2022-09-29T07:09:08;16.92;;;7.28;;
27746;SDS011;15138;51.012;4.692;2022-09-29T07:11:41;14.23;;;7.47;;
27746;SDS011;15138;51.012;4.692;2022-09-29T07:14:12;16.05;;;7.80;;
27746;SDS011;15138;51.012;4.692;2022-09-29T07:16:40;15.45;;;7.65;;
27746;SDS011;15138;51.012;4.692;2022-09-29T07:19:09;16.90;;;7.95;;
27746;SDS011;15138;51.012;4.692;2022-09-29T07:21:37;13.57;;;6.97;;
27746;SDS011;15138;51.012;4.692;2022-09-29T07:24:07;16.52;;;7.60;;
27746;SDS011;15138;51.012;4.692;2022-09-29T07:26:35;16.77;;;7.93;;
27746;SDS011;15138;51.012;4.692;2022-09-29T07:29:03;17.80;;;8.23;;
27746;SDS011;15138;51.012;4.692;2022-09-29T07:31:35;12.95;;;7.13;;
27746;SDS011;15138;51.012;4.692;2022-09-29T07:34:16;19.52;;;7.43;;
27746;SDS011;15138;51.012;4.692;2022-09-29T07:36:45;15.10;;;8.20;;
27746;SDS011;15138;51.012;4.692;2022-09-29T07:39:13;13.15;;;7.30;;
27746;SDS011;15138;51.012;4.692;2022-09-29T07:41:42;20.98;;;8.10;;
27746;SDS011;15138;51.012;4.692;2022-09-29T07:44:10;15.32;;;7.53;;
27746;SDS011;15138;51.012;4.692;2022-09-29T07:46:38;18.95;;;7.82;;
27746;SDS011;15138;51.012;4.692;2022-09-29T07:49:06;15.50;;;8.13;;
27746;SDS011;15138;51.012;4.692;2022-09-29T07:51:34;17.67;;;8.27;;
27746;SDS011;15138;51.012;4.692;2022-09-29T07:54:04;16.77;;;7.68;;
27746;SDS011;15138;51.012;4.692;2022-09-29T07:56:32;16.00;;;8.00;;
27746;SDS011;15138;51.012;4.692;2022-09-29T07:59:00;16.55;;;7.15;;
27746;SDS011;15138;51.012;4.692;2022-09-29T08:01:29;15.48;;;7.15;;
27746;SDS011;15138;51.012;4.692;2022-09-29T08:03:58;17.15;;;7.95;;
27746;SDS011;15138;51.012;4.692;2022-09-29T08:06:27;19.02;;;7.50;;
27746;SDS011;15138;51.012;4.692;2022-09-29T08:08:55;17.25;;;7.63;;
27746;SDS011;15138;51.012;4.692;2022-09-29T08:11:31;16.60;;;7.63;;
27746;SDS011;15138;51.012;4.692;2022-09-29T08:14:03;17.60;;;7.88;;
27746;SDS011;15138;51.012;4.692;2022-09-29T08:16:31;28.17;;;8.18;;
27746;SDS011;15138;51.012;4.692;2022-09-29T08:19:00;13.95;;;6.80;;
27746;SDS011;15138;51.012;4.692;2022-09-29T08:21:30;18.08;;;7.65;;
27746;SDS011;15138;51.012;4.692;2022-09-29T08:24:01;17.10;;;7.25;;
27746;SDS011;15138;51.012;4.692;2022-09-29T08:26:32;15.73;;;7.38;;
27746;SDS011;15138;51.012;4.692;2022-09-29T08:29:08;13.25;;;7.70;;
27746;SDS011;15138;51.012;4.692;2022-09-29T08:31:42;14.32;;;6.82;;
27746;SDS011;15138;51.012;4.692;2022-09-29T08:34:10;16.40;;;7.22;;
27746;SDS011;15138;51.012;4.692;2022-09-29T08:36:39;16.10;;;6.88;;
27746;SDS011;15138;51.012;4.692;2022-09-29T08:39:09;19.23;;;7.47;;
27746;SDS011;15138;51.012;4.692;2022-09-29T08:41:50;12.23;;;6.43;;
27746;SDS011;15138;51.012;4.692;2022-09-29T08:44:22;11.10;;;6.35;;
27746;SDS011;15138;51.012;4.692;2022-09-29T08:47:06;11.35;;;6.55;;
27746;SDS011;15138;51.012;4.692;2022-09-29T08:49:44;11.00;;;6.10;;
27746;SDS011;15138;51.012;4.692;2022-09-29T08:52:14;12.18;;;6.07;;
27746;SDS011;15138;51.012;4.692;2022-09-29T08:54:46;12.25;;;6.40;;
27746;SDS011;15138;51.012;4.692;2022-09-29T08:57:18;10.40;;;4.90;;
27746;SDS011;15138;51.012;4.692;2022-09-29T08:59:48;11.13;;;5.43;;
27746;SDS011;15138;51.012;4.692;2022-09-29T09:02:38;16.30;;;5.45;;
27746;SDS011;15138;51.012;4.692;2022-09-29T09:05:42;9.13;;;5.05;;
27746;SDS011;15138;51.012;4.692;2022-09-29T09:08:25;11.52;;;5.30;;
27746;SDS011;15138;51.012;4.692;2022-09-29T09:11:10;8.38;;;4.82;;
27746;SDS011;15138;51.012;4.692;2022-09-29T09:13:53;15.05;;;5.70;;
27746;SDS011;15138;51.012;4.692;2022-09-29T09:16:34;10.88;;;5.35;;
27746;SDS011;15138;51.012;4.692;2022-09-29T09:22:24;8.43;;;4.40;;
27746;SDS011;15138;51.012;4.692;2022-09-29T09:25:06;10.18;;;4.70;;
27746;SDS011;15138;51.012;4.692;2022-09-29T09:27:46;7.40;;;3.70;;
27746;SDS011;15138;51.012;4.692;2022-09-29T09:30:27;5.47;;;3.50;;
27746;SDS011;15138;51.012;4.692;2022-09-29T09:33:01;7.40;;;4.32;;
27746;SDS011;15138;51.012;4.692;2022-09-29T09:35:33;8.90;;;4.65;;
27746;SDS011;15138;51.012;4.692;2022-09-29T09:38:19;11.73;;;4.03;;
27746;SDS011;15138;51.012;4.692;2022-09-29T09:40:51;6.55;;;4.20;;
27746;SDS011;15138;51.012;4.692;2022-09-29T09:43:23;9.38;;;4.55;;
27746;SDS011;15138;51.012;4.692;2022-09-29T09:45:59;9.52;;;4.28;;
27746;SDS011;15138;51.012;4.692;2022-09-29T09:48:31;7.20;;;3.75;;
27746;SDS011;15138;51.012;4.692;2022-09-29T09:51:09;8.68;;;3.40;;
27746;SDS011;15138;51.012;4.692;2022-09-29T09:54:03;7.28;;;3.67;;
27746;SDS011;15138;51.012;4.692;2022-09-29T09:59:22;8.30;;;3.85;;
27746;SDS011;15138;51.012;4.692;2022-09-29T10:02:00;10.48;;;4.30;;
27746;SDS011;15138;51.012;4.692;2022-09-29T10:04:28;10.35;;;3.85;;
27746;SDS011;15138;51.012;4.692;2022-09-29T10:06:58;8.45;;;3.60;;
27746;SDS011;15138;51.012;4.692;2022-09-29T10:09:26;9.05;;;3.72;;
27746;SDS011;15138;51.012;4.692;2022-09-29T10:11:55;5.53;;;2.95;;
27746;SDS011;15138;51.012;4.692;2022-09-29T10:14:23;6.53;;;3.33;;
27746;SDS011;15138;51.012;4.692;2022-09-29T10:16:53;6.80;;;3.00;;
27746;SDS011;15138;51.012;4.692;2022-09-29T10:22:26;5.78;;;3.15;;
27746;SDS011;15138;51.012;4.692;2022-09-29T10:25:04;5.85;;;3.22;;
27746;SDS011;15138;51.012;4.692;2022-09-29T10:27:34;7.13;;;3.00;;
27746;SDS011;15138;51.012;4.692;2022-09-29T10:30:15;8.32;;;3.38;;
27746;SDS011;15138;51.012;4.692;2022-09-29T10:32:45;9.63;;;3.17;;
27746;SDS011;15138;51.012;4.692;2022-09-29T10:35:16;6.07;;;2.83;;
27746;SDS011;15138;51.012;4.692;2022-09-29T10:37:52;6.65;;;2.65;;
27746;SDS011;15138;51.012;4.692;2022-09-29T10:40:27;9.10;;;2.92;;
27746;SDS011;15138;51.012;4.692;2022-09-29T10:42:55;5.65;;;2.40;;
27746;SDS011;15138;51.012;4.692;2022-09-29T10:45:24;5.93;;;2.67;;
27746;SDS011;15138;51.012;4.692;2022-09-29T10:48:07;3.75;;;1.88;;
27746;SDS011;15138;51.012;4.692;2022-09-29T10:50:48;6.15;;;2.13;;
27746;SDS011;15138;51.012;4.692;2022-09-29T10:53:26;4.68;;;2.00;;
27746;SDS011;15138;51.012;4.692;2022-09-29T10:55:57;4.30;;;2.10;;
27746;SDS011;15138;51.012;4.692;2022-09-29T10:58:27;7.40;;;2.22;;
27746;SDS011;15138;51.012;4.692;2022-09-29T11:01:17;6.55;;;2.00;;
27746;SDS011;15138;51.012;4.692;2022-09-29T11:03:47;6.35;;;1.95;;
27746;SDS011;15138;51.012;4.692;2022-09-29T11:06:23;5.63;;;1.80;;
27746;SDS011;15138;51.012;4.692;2022-09-29T11:08:53;3.65;;;1.92;;
27746;SDS011;15138;51.012;4.692;2022-09-29T11:11:23;4.93;;;2.63;;
27746;SDS011;15138;51.012;4.692;2022-09-29T11:13:52;7.13;;;2.40;;
27746;SDS011;15138;51.012;4.692;2022-09-29T11:16:26;5.40;;;2.20;;
27746;SDS011;15138;51.012;4.692;2022-09-29T11:18:58;5.07;;;2.25;;
27746;SDS011;15138;51.012;4.692;2022-09-29T11:24:30;4.95;;;2.08;;
27746;SDS011;15138;51.012;4.692;2022-09-29T11:27:16;7.85;;;2.53;;
27746;SDS011;15138;51.012;4.692;2022-09-29T11:29:54;3.58;;;1.70;;
27746;SDS011;15138;51.012;4.692;2022-09-29T11:32:33;3.45;;;1.70;;
27746;SDS011;15138;51.012;4.692;2022-09-29T11:35:30;4.68;;;1.95;;
27746;SDS011;15138;51.012;4.692;2022-09-29T11:38:06;3.25;;;1.85;;
27746;SDS011;15138;51.012;4.692;2022-09-29T11:40:53;3.30;;;1.42;;
27746;SDS011;15138;51.012;4.692;2022-09-29T11:43:33;3.42;;;1.55;;
27746;SDS011;15138;51.012;4.692;2022-09-29T11:46:18;3.25;;;1.65;;
27746;SDS011;15138;51.012;4.692;2022-09-29T11:49:14;3.67;;;1.80;;
27746;SDS011;15138;51.012;4.692;2022-09-29T11:54:42;4.15;;;1.52;;
27746;SDS011;15138;51.012;4.692;2022-09-29T11:57:15;5.80;;;1.58;;
27746;SDS011;15138;51.012;4.692;2022-09-29T11:59:48;2.20;;;1.17;;
27746;SDS011;15138;51.012;4.692;2022-09-29T12:02:25;5.68;;;1.50;;
27746;SDS011;15138;51.012;4.692;2022-09-29T12:05:17;4.32;;;1.17;;
27746;SDS011;15138;51.012;4.692;2022-09-29T12:07:53;2.72;;;1.33;;
27746;SDS011;15138;51.012;4.692;2022-09-29T12:10:43;6.00;;;1.58;;
27746;SDS011;15138;51.012;4.692;2022-09-29T12:13:25;2.33;;;1.10;;
27746;SDS011;15138;51.012;4.692;2022-09-29T12:16:00;4.18;;;1.52;;
27746;SDS011;15138;51.012;4.692;2022-09-29T12:18:35;7.78;;;1.75;;
27746;SDS011;15138;51.012;4.692;2022-09-29T12:21:07;3.53;;;1.40;;
27746;SDS011;15138;51.012;4.692;2022-09-29T12:23:43;4.38;;;1.63;;
27746;SDS011;15138;51.012;4.692;2022-09-29T12:26:14;7.00;;;1.35;;
27746;SDS011;15138;51.012;4.692;2022-09-29T12:28:44;3.95;;;1.33;;
27746;SDS011;15138;51.012;4.692;2022-09-29T12:31:18;3.22;;;1.45;;
27746;SDS011;15138;51.012;4.692;2022-09-29T12:33:50;3.08;;;1.27;;
27746;SDS011;15138;51.012;4.692;2022-09-29T12:36:28;4.65;;;1.52;;
27746;SDS011;15138;51.012;4.692;2022-09-29T12:39:24;3.17;;;1.33;;
27746;SDS011;15138;51.012;4.692;2022-09-29T12:42:06;2.58;;;1.20;;
27746;SDS011;15138;51.012;4.692;2022-09-29T12:44:55;4.70;;;1.52;;
27746;SDS011;15138;51.012;4.692;2022-09-29T12:47:32;4.40;;;1.52;;
27746;SDS011;15138;51.012;4.692;2022-09-29T12:50:14;5.70;;;1.45;;
27746;SDS011;15138;51.012;4.692;2022-09-29T12:52:47;3.83;;;1.50;;
27746;SDS011;15138;51.012;4.692;2022-09-29T12:55:23;3.15;;;1.20;;
27746;SDS011;15138;51.012;4.692;2022-09-29T12:58:00;5.18;;;1.83;;
27746;SDS011;15138;51.012;4.692;2022-09-29T13:00:32;3.25;;;1.50;;
27746;SDS011;15138;51.012;4.692;2022-09-29T13:06:17;1.98;;;1.20;;
27746;SDS011;15138;51.012;4.692;2022-09-29T13:09:08;2.85;;;1.33;;
27746;SDS011;15138;51.012;4.692;2022-09-29T13:11:56;3.72;;;1.13;;
27746;SDS011;15138;51.012;4.692;2022-09-29T13:14:40;3.65;;;1.40;;
27746;SDS011;15138;51.012;4.692;2022-09-29T13:17:33;5.40;;;1.40;;
27746;SDS011;15138;51.012;4.692;2022-09-29T13:20:21;2.58;;;1.40;;
27746;SDS011;15138;51.012;4.692;2022-09-29T13:26:15;3.10;;;1.25;;
27746;SDS011;15138;51.012;4.692;2022-09-29T13:28:58;7.70;;;1.40;;
27746;SDS011;15138;51.012;4.692;2022-09-29T13:31:30;2.78;;;1.10;;
27746;SDS011;15138;51.012;4.692;2022-09-29T13:34:05;3.45;;;1.00;;
27746;SDS011;15138;51.012;4.692;2022-09-29T13:36:35;3.35;;;0.93;;
27746;SDS011;15138;51.012;4.692;2022-09-29T13:39:07;3.17;;;0.90;;
27746;SDS011;15138;51.012;4.692;2022-09-29T13:41:47;2.67;;;0.93;;
27746;SDS011;15138;51.012;4.692;2022-09-29T13:44:19;2.15;;;0.90;;
27746;SDS011;15138;51.012;4.692;2022-09-29T13:46:51;6.18;;;0.98;;
27746;SDS011;15138;51.012;4.692;2022-09-29T13:49:27;6.75;;;1.02;;
27746;SDS011;15138;51.012;4.692;2022-09-29T13:54:29;2.40;;;0.80;;
27746;SDS011;15138;51.012;4.692;2022-09-29T14:02:48;3.05;;;1.40;;
27746;SDS011;15138;51.012;4.692;2022-09-29T14:05:38;5.10;;;1.38;;
27746;SDS011;15138;51.012;4.692;2022-09-29T14:08:26;3.00;;;1.20;;
27746;SDS011;15138;51.012;4.692;2022-09-29T14:11:02;2.55;;;1.30;;
27746;SDS011;15138;51.012;4.692;2022-09-29T14:13:39;2.53;;;0.95;;
27746;SDS011;15138;51.012;4.692;2022-09-29T14:16:22;5.68;;;1.10;;
27746;SDS011;15138;51.012;4.692;2022-09-29T14:19:01;1.35;;;0.80;;
27746;SDS011;15138;51.012;4.692;2022-09-29T14:21:52;5.53;;;0.95;;
27746;SDS011;15138;51.012;4.692;2022-09-29T14:24:41;1.83;;;0.70;;
27746;SDS011;15138;51.012;4.692;2022-09-29T14:30:11;1.98;;;0.80;;
27746;SDS011;15138;51.012;4.692;2022-09-29T14:32:43;2.45;;;0.93;;
27746;SDS011;15138;51.012;4.692;2022-09-29T14:40:26;5.70;;;1.05;;
27746;SDS011;15138;51.012;4.692;2022-09-29T14:43:01;2.72;;;0.93;;
27746;SDS011;15138;51.012;4.692;2022-09-29T14:45:37;3.40;;;1.05;;
27746;SDS011;15138;51.012;4.692;2022-09-29T14:48:49;1.50;;;0.90;;
27746;SDS011;15138;51.012;4.692;2022-09-29T14:51:48;3.53;;;1.08;;
27746;SDS011;15138;51.012;4.692;2022-09-29T14:54:29;2.55;;;1.05;;
27746;SDS011;15138;51.012;4.692;2022-09-29T15:00:01;2.53;;;1.23;;
27746;SDS011;15138;51.012;4.692;2022-09-29T15:02:30;4.10;;;0.95;;
27746;SDS011;15138;51.012;4.692;2022-09-29T15:05:10;4.72;;;1.40;;
27746;SDS011;15138;51.012;4.692;2022-09-29T15:07:40;2.70;;;1.15;;
27746;SDS011;15138;51.012;4.692;2022-09-29T15:10:19;2.63;;;0.93;;
27746;SDS011;15138;51.012;4.692;2022-09-29T15:12:48;7.28;;;1.20;;
27746;SDS011;15138;51.012;4.692;2022-09-29T15:15:27;2.00;;;0.90;;
27746;SDS011;15138;51.012;4.692;2022-09-29T15:18:04;4.95;;;1.23;;
27746;SDS011;15138;51.012;4.692;2022-09-29T15:20:43;4.53;;;1.10;;
27746;SDS011;15138;51.012;4.692;2022-09-29T15:26:22;3.85;;;1.15;;
27746;SDS011;15138;51.012;4.692;2022-09-29T15:28:54;4.60;;;0.90;;
27746;SDS011;15138;51.012;4.692;2022-09-29T15:31:25;5.55;;;1.00;;
27746;SDS011;15138;51.012;4.692;2022-09-29T15:33:56;5.32;;;1.17;;
27746;SDS011;15138;51.012;4.692;2022-09-29T15:36:24;1.85;;;1.00;;
27746;SDS011;15138;51.012;4.692;2022-09-29T15:38:59;2.55;;;1.00;;
27746;SDS011;15138;51.012;4.692;2022-09-29T15:41:33;3.90;;;1.27;;
27746;SDS011;15138;51.012;4.692;2022-09-29T15:44:02;2.45;;;1.08;;
27746;SDS011;15138;51.012;4.692;2022-09-29T15:46:46;2.15;;;1.00;;
27746;SDS011;15138;51.012;4.692;2022-09-29T15:49:16;3.72;;;1.10;;
27746;SDS011;15138;51.012;4.692;2022-09-29T15:51:53;2.55;;;1.05;;
27746;SDS011;15138;51.012;4.692;2022-09-29T15:54:23;4.25;;;1.40;;
27746;SDS011;15138;51.012;4.692;2022-09-29T15:56:54;3.35;;;1.15;;
27746;SDS011;15138;51.012;4.692;2022-09-29T15:59:41;2.05;;;0.90;;
27746;SDS011;15138;51.012;4.692;2022-09-29T16:02:15;4.95;;;1.05;;
27746;SDS011;15138;51.012;4.692;2022-09-29T16:04:50;2.95;;;1.00;;
27746;SDS011;15138;51.012;4.692;2022-09-29T16:07:22;3.30;;;1.00;;
27746;SDS011;15138;51.012;4.692;2022-09-29T16:09:59;2.55;;;0.93;;
27746;SDS011;15138;51.012;4.692;2022-09-29T16:12:36;4.88;;;1.00;;
27746;SDS011;15138;51.012;4.692;2022-09-29T16:15:09;4.32;;;1.10;;